Time;durP1;ratioP1;P1;durP2;ratioP2;P2;SDS_P1;SDS_P2;PMS_P1;PMS_P2;Temp;Humidity;BMP_temperature;BMP_pressure;BME280_temperature;BME280_humidity;BME280_pressure;Samples;Min_cycle;Max_cycle;Signal;HPM_P1;HPM_P2
2022/06/11 00:01:48;;;;;;;;;;;;;;;16.34;76.83;97116.44;109720;1253;72383;-66
2022/06/11 00:04:19;;;;;;;;;;;;;;;16.33;76.93;97115.64;109928;1250;67807;-65
2022/06/11 00:06:51;;;;;;;;;;;;;;;16.34;76.59;97127.81;109820;1250;69476;-65
2022/06/11 00:09:21;;;;;;;;;;;;;;;16.34;80.31;97128.89;109755;1251;60569;-65
2022/06/11 00:11:51;;;;;;;;;;;;;;;16.33;78.64;97128.43;109961;1250;60497;-67
2022/06/11 00:14:23;;;;;;;;;;;;;;;16.32;80.83;97126.75;109741;1250;72376;-65
2022/06/11 00:16:53;;;;;;;;;;;;;;;16.25;83.11;97123.55;109955;1250;67714;-65
2022/06/11 00:19:22;;;;;;;;;;;;;;;16.22;82.85;97119.16;109900;1250;69255;-66
2022/06/11 00:21:52;;;;;;;;;;;;;;;16.18;83.43;97117.77;109896;1250;60479;-67
2022/06/11 00:24:23;;;;;;;;;;;;;;;16.14;83.12;97123.29;109920;1250;60506;-67
2022/06/11 00:26:54;;;;;;;;;;;;;;;16.13;82.73;97122.15;109964;1250;72245;-65
2022/06/11 00:29:26;;;;;;;;;;;;;;;16.11;84.17;97118.27;109976;1250;68555;-70
2022/06/11 00:31:57;;;;;;;;;;;;;;;16.09;83.88;97111.32;110488;1250;68623;-72
2022/06/11 00:34:27;;;;;;;;;;;;;;;16.06;85.31;97110.76;109755;1250;60469;-69
2022/06/11 00:36:57;;;;;;;;;;;;;;;16.00;83.70;97106.70;109770;1253;60540;-71
2022/06/11 00:39:28;;;;;;;;;;;;;;;15.97;85.25;97110.20;109924;1250;72352;-71
2022/06/11 00:42:00;;;;;;;;;;;;;;;15.93;85.53;97113.28;109909;1250;68536;-68
2022/06/11 00:44:31;;;;;;;;;;;;;;;15.91;85.75;97115.91;109632;1253;69566;-68
2022/06/11 00:47:04;;;;;;;;;;;;;;;15.89;85.55;97112.01;109703;1253;60550;-67
2022/06/11 00:49:40;;;;;;;;;;;;;;;15.91;86.03;97113.09;109915;1250;60470;-67
2022/06/11 00:52:28;;;;;;;;;;;;;;;15.92;83.12;97109.98;109850;1250;72356;-67
2022/06/11 00:55:10;;;;;;;;;;;;;;;15.93;83.90;97115.52;109818;1250;67804;-72
2022/06/11 00:57:43;;;;;;;;;;;;;;;15.90;82.72;97114.97;109814;1251;69428;-65
2022/06/11 01:00:17;;;;;;;;;;;;;;;15.90;85.85;97113.89;109896;1250;60492;-72
2022/06/11 01:02:50;;;;;;;;;;;;;;;15.92;87.36;97115.16;109955;1250;60505;-69
2022/06/11 01:05:23;;;;;;;;;;;;;;;15.93;87.39;97112.93;109917;1250;72487;-66
2022/06/11 01:07:58;;;;;;;;;;;;;;;15.94;87.60;97114.58;109964;1250;67758;-66
2022/06/11 01:10:56;;;;;;;;;;;;;;;15.93;86.75;97112.70;109791;1251;68786;-71
2022/06/11 01:13:34;;;;;;;;;;;;;;;15.92;86.83;97112.16;109841;1250;60503;-67
2022/06/11 01:16:10;;;;;;;;;;;;;;;15.90;85.56;97113.38;109928;1250;60518;-68
2022/06/11 01:18:43;;;;;;;;;;;;;;;15.87;84.41;97113.30;110613;1250;71746;-70
2022/06/11 01:21:16;;;;;;;;;;;;;;;15.84;85.05;97116.48;109792;1253;67784;-65
2022/06/11 01:23:56;;;;;;;;;;;;;;;15.80;84.14;97123.88;109874;1250;69411;-68
2022/06/11 01:26:25;;;;;;;;;;;;;;;15.76;84.78;97128.43;109923;1250;60442;-70
2022/06/11 01:29:11;;;;;;;;;;;;;;;15.71;86.46;97124.20;109927;1250;60526;-69
2022/06/11 01:31:50;;;;;;;;;;;;;;;15.69;86.18;97120.86;109700;1253;72231;-69
2022/06/11 01:34:32;;;;;;;;;;;;;;;15.73;87.01;97124.14;109935;1250;68304;-67
2022/06/11 01:37:07;;;;;;;;;;;;;;;15.79;87.25;97129.58;109950;1250;69005;-65
2022/06/11 01:39:39;;;;;;;;;;;;;;;15.84;85.98;97133.52;109960;1251;60448;-68
2022/06/11 01:42:15;;;;;;;;;;;;;;;15.88;86.07;97131.53;109950;1251;60464;-66
2022/06/11 01:44:46;;;;;;;;;;;;;;;15.91;86.50;97135.61;109914;1250;72449;-66
2022/06/11 01:47:15;;;;;;;;;;;;;;;15.91;86.79;97135.28;109975;1251;67829;-66
2022/06/11 01:49:46;;;;;;;;;;;;;;;15.91;85.71;97135.61;109884;1250;68775;-66
2022/06/11 01:52:33;;;;;;;;;;;;;;;15.92;85.23;97134.48;109962;1250;60520;-65
2022/06/11 01:55:27;;;;;;;;;;;;;;;15.91;86.85;97136.29;109917;1250;60505;-66
2022/06/11 01:58:09;;;;;;;;;;;;;;;15.90;86.39;97134.27;109894;1250;72165;-65
2022/06/11 02:00:43;;;;;;;;;;;;;;;15.89;86.49;97135.29;109672;1254;68690;-67
2022/06/11 02:03:32;;;;;;;;;;;;;;;15.88;86.69;97137.70;109716;1253;68572;-68
2022/06/11 02:06:14;;;;;;;;;;;;;;;15.87;86.63;97139.01;110434;1250;60511;-65
2022/06/11 02:09:10;;;;;;;;;;;;;;;15.86;87.58;97146.30;109873;1251;60592;-66
2022/06/11 02:11:46;;;;;;;;;;;;;;;15.84;87.51;97143.88;109920;1250;71645;-66
2022/06/11 02:14:16;;;;;;;;;;;;;;;15.82;85.21;97143.73;109956;1250;67697;-66
2022/06/11 02:16:50;;;;;;;;;;;;;;;15.79;86.14;97143.78;109877;1250;69237;-68
2022/06/11 02:19:31;;;;;;;;;;;;;;;15.76;86.54;97142.14;109952;1250;60496;-66
2022/06/11 02:22:04;;;;;;;;;;;;;;;15.74;87.08;97144.45;109880;1250;60569;-67
2022/06/11 02:24:37;;;;;;;;;;;;;;;15.73;86.47;97140.98;109730;1251;71560;-66
2022/06/11 02:27:11;;;;;;;;;;;;;;;15.73;85.50;97141.38;109892;1251;68568;-70
2022/06/11 02:29:42;;;;;;;;;;;;;;;15.73;87.53;97139.23;109898;1250;68655;-69
2022/06/11 02:32:14;;;;;;;;;;;;;;;15.74;86.26;97136.67;109930;1250;60522;-67
2022/06/11 02:34:45;;;;;;;;;;;;;;;15.75;85.64;97136.61;109936;1251;60494;-74
2022/06/11 02:37:23;;;;;;;;;;;;;;;15.75;86.57;97136.80;109960;1250;71779;-68
2022/06/11 02:39:55;;;;;;;;;;;;;;;15.75;86.21;97139.40;109979;1250;68415;-67
2022/06/11 02:42:26;;;;;;;;;;;;;;;15.75;87.41;97140.70;109924;1251;69406;-71
2022/06/11 02:44:57;;;;;;;;;;;;;;;15.73;86.78;97141.71;109861;1250;60555;-68
2022/06/11 02:47:26;;;;;;;;;;;;;;;15.72;85.66;97144.84;109948;1251;60599;-65
2022/06/11 02:49:55;;;;;;;;;;;;;;;15.71;85.40;97144.73;109860;1250;72166;-67
2022/06/11 02:52:25;;;;;;;;;;;;;;;15.71;85.40;97147.68;110025;1253;67659;-73
2022/06/11 02:54:54;;;;;;;;;;;;;;;15.72;85.25;97142.55;110280;1250;68486;-66
2022/06/11 02:57:25;;;;;;;;;;;;;;;15.74;83.75;97144.29;109882;1251;60553;-72
2022/06/11 02:59:54;;;;;;;;;;;;;;;15.74;83.87;97139.48;109826;1251;60497;-66
2022/06/11 03:02:24;;;;;;;;;;;;;;;15.73;86.50;97136.86;109842;1250;71614;-72
2022/06/11 03:04:54;;;;;;;;;;;;;;;15.68;86.02;97135.92;109804;1251;67820;-66
2022/06/11 03:07:24;;;;;;;;;;;;;;;15.64;86.77;97134.23;109917;1250;68708;-70
2022/06/11 03:09:53;;;;;;;;;;;;;;;15.61;85.76;97139.16;109940;1251;60484;-66
2022/06/11 03:12:24;;;;;;;;;;;;;;;15.60;86.21;97142.30;109954;1251;60561;-66
2022/06/11 03:14:54;;;;;;;;;;;;;;;15.58;86.06;97148.98;109874;1252;72344;-67
2022/06/11 03:17:23;;;;;;;;;;;;;;;15.60;85.78;97144.73;109755;1251;68632;-72
2022/06/11 03:19:54;;;;;;;;;;;;;;;15.66;85.50;97149.67;109837;1250;68636;-67
2022/06/11 03:22:23;;;;;;;;;;;;;;;15.72;84.60;97153.43;109904;1250;60551;-66
2022/06/11 03:24:53;;;;;;;;;;;;;;;15.78;84.59;97155.13;109913;1250;60581;-73
2022/06/11 03:27:23;;;;;;;;;;;;;;;15.81;84.36;97152.56;109903;1250;72372;-71
2022/06/11 03:29:52;;;;;;;;;;;;;;;15.85;84.81;97153.58;109788;1250;67873;-64
2022/06/11 03:32:21;;;;;;;;;;;;;;;15.90;85.51;97156.62;109694;1250;69400;-68
2022/06/11 03:34:51;;;;;;;;;;;;;;;15.95;84.87;97158.00;109729;1251;60528;-66
2022/06/11 03:37:21;;;;;;;;;;;;;;;16.00;86.36;97165.23;109920;1250;60545;-69
2022/06/11 03:39:50;;;;;;;;;;;;;;;16.04;86.34;97162.20;110093;1250;72309;-69
2022/06/11 03:42:20;;;;;;;;;;;;;;;16.09;86.16;97157.91;110363;1250;68640;-70
2022/06/11 03:44:49;;;;;;;;;;;;;;;16.12;85.10;97158.97;109931;1251;69432;-70
2022/06/11 03:47:19;;;;;;;;;;;;;;;16.16;85.76;97165.05;109874;1250;60589;-69
2022/06/11 03:49:48;;;;;;;;;;;;;;;16.19;86.40;97170.46;109861;1251;60954;-66
2022/06/11 03:52:18;;;;;;;;;;;;;;;16.18;86.90;97175.83;109912;1251;70665;-66
2022/06/11 03:54:47;;;;;;;;;;;;;;;16.16;86.90;97179.14;109891;1250;68611;-66
2022/06/11 03:57:16;;;;;;;;;;;;;;;16.16;87.14;97181.44;109886;1250;67485;-65
2022/06/11 03:59:45;;;;;;;;;;;;;;;16.16;87.18;97183.75;109696;1251;60586;-66
2022/06/11 04:02:15;;;;;;;;;;;;;;;16.13;86.69;97181.88;109916;1251;60445;-66
2022/06/11 04:04:45;;;;;;;;;;;;;;;16.15;86.80;97184.86;109873;1251;71517;-69
2022/06/11 04:07:14;;;;;;;;;;;;;;;16.14;86.10;97186.70;109927;1251;68599;-66
2022/06/11 04:09:45;;;;;;;;;;;;;;;16.19;85.49;97184.67;109837;1251;69285;-70
2022/06/11 04:12:15;;;;;;;;;;;;;;;16.24;85.07;97187.34;109852;1249;60560;-65
2022/06/11 04:14:46;;;;;;;;;;;;;;;16.27;85.33;97190.31;109928;1251;60557;-67
2022/06/11 04:17:20;;;;;;;;;;;;;;;16.26;85.35;97192.59;109743;1251;71615;-65
2022/06/11 04:19:50;;;;;;;;;;;;;;;16.27;84.38;97187.20;109979;1251;68634;-66
2022/06/11 04:22:20;;;;;;;;;;;;;;;16.29;84.04;97188.70;109918;1250;69246;-66
2022/06/11 04:24:49;;;;;;;;;;;;;;;16.33;83.58;97188.77;109726;1251;60546;-66
2022/06/11 04:27:19;;;;;;;;;;;;;;;16.34;82.84;97188.28;109993;1250;60500;-70
2022/06/11 04:29:51;;;;;;;;;;;;;;;16.30;82.76;97189.89;110409;1251;72426;-69
2022/06/11 04:32:20;;;;;;;;;;;;;;;16.24;82.54;97191.54;109687;1251;68621;-73
2022/06/11 04:34:49;;;;;;;;;;;;;;;16.25;82.53;97194.58;109714;1251;69356;-72
2022/06/11 04:37:20;;;;;;;;;;;;;;;16.28;82.47;97193.64;109715;1252;60500;-69
2022/06/11 04:39:51;;;;;;;;;;;;;;;16.28;80.73;97196.27;109886;1250;60524;-66
2022/06/11 04:42:21;;;;;;;;;;;;;;;16.36;81.50;97192.63;109855;1253;72128;-66
2022/06/11 04:44:50;;;;;;;;;;;;;;;16.45;81.86;97190.65;109724;1251;68126;-71
2022/06/11 04:47:21;;;;;;;;;;;;;;;16.56;80.99;97184.09;109663;1253;69526;-66
2022/06/11 04:49:52;;;;;;;;;;;;;;;16.67;80.74;97181.93;109922;1251;60486;-69
2022/06/11 04:52:21;;;;;;;;;;;;;;;16.79;80.42;97185.66;109936;1250;60524;-70
2022/06/11 04:54:51;;;;;;;;;;;;;;;16.89;79.93;97188.89;109909;1251;72218;-71
2022/06/11 04:57:21;;;;;;;;;;;;;;;16.92;80.93;97188.08;109849;1250;66704;-72
2022/06/11 04:59:50;;;;;;;;;;;;;;;16.99;81.54;97196.66;109694;1253;69572;-68
2022/06/11 05:02:22;;;;;;;;;;;;;;;17.07;82.05;97201.85;109895;1251;60552;-69
2022/06/11 05:04:52;;;;;;;;;;;;;;;17.12;80.59;97200.85;109974;1251;60951;-66
2022/06/11 05:07:21;;;;;;;;;;;;;;;17.10;80.74;97200.79;109914;1251;71592;-72
2022/06/11 05:09:51;;;;;;;;;;;;;;;17.18;80.76;97193.13;109692;1254;68717;-68
2022/06/11 05:12:19;;;;;;;;;;;;;;;17.32;80.49;97195.92;109756;1251;68668;-71
2022/06/11 05:14:48;;;;;;;;;;;;;;;17.44;80.47;97196.64;110017;1250;60555;-65
2022/06/11 05:17:17;;;;;;;;;;;;;;;17.57;80.09;97199.30;110370;1251;60415;-70
2022/06/11 05:19:46;;;;;;;;;;;;;;;17.67;79.01;97203.19;109923;1251;73040;-68
2022/06/11 05:22:15;;;;;;;;;;;;;;;17.76;78.42;97203.81;109892;1251;68767;-68
2022/06/11 05:24:44;;;;;;;;;;;;;;;17.93;77.85;97201.77;109914;1251;69252;-68
2022/06/11 05:27:16;;;;;;;;;;;;;;;18.07;76.46;97198.98;109832;1251;60563;-69
2022/06/11 05:29:52;;;;;;;;;;;;;;;18.20;75.68;97199.11;109898;1251;60499;-71
2022/06/11 05:32:22;;;;;;;;;;;;;;;18.29;73.90;97200.98;109924;1251;72523;-68
2022/06/11 05:34:51;;;;;;;;;;;;;;;18.26;72.11;97203.78;109952;1251;68715;-67
2022/06/11 05:37:20;;;;;;;;;;;;;;;18.40;72.60;97205.67;109925;1251;69363;-68
2022/06/11 05:39:50;;;;;;;;;;;;;;;18.31;72.35;97205.00;109739;1251;60493;-73
2022/06/11 05:42:20;;;;;;;;;;;;;;;18.38;71.98;97206.56;109702;1254;60492;-66
2022/06/11 05:44:49;;;;;;;;;;;;;;;18.46;72.48;97211.50;109782;1251;72479;-65
2022/06/11 05:47:20;;;;;;;;;;;;;;;18.56;73.09;97209.24;109777;1251;67999;-71
2022/06/11 05:49:53;;;;;;;;;;;;;;;18.63;71.91;97209.14;109639;1252;68670;-69
2022/06/11 05:52:24;;;;;;;;;;;;;;;18.74;71.92;97207.50;109738;1251;60458;-70
2022/06/11 05:54:53;;;;;;;;;;;;;;;18.87;71.09;97208.21;109766;1251;61344;-69
2022/06/11 05:57:24;;;;;;;;;;;;;;;18.98;71.21;97207.36;109737;1251;72596;-68
2022/06/11 05:59:56;;;;;;;;;;;;;;;19.12;71.50;97207.90;109771;1251;68605;-67
2022/06/11 06:02:25;;;;;;;;;;;;;;;19.19;71.39;97209.35;109976;1254;70008;-71
2022/06/11 06:04:55;;;;;;;;;;;;;;;19.22;70.56;97211.47;110078;1251;60504;-68
2022/06/11 06:07:24;;;;;;;;;;;;;;;19.28;70.27;97214.56;109738;1253;60489;-68
2022/06/11 06:09:53;;;;;;;;;;;;;;;19.35;71.65;97219.27;109762;1251;72484;-68
2022/06/11 06:12:21;;;;;;;;;;;;;;;19.33;70.59;97223.70;109757;1251;68629;-66
2022/06/11 06:14:50;;;;;;;;;;;;;;;19.48;70.79;97224.69;109742;1251;68770;-69
2022/06/11 06:17:20;;;;;;;;;;;;;;;19.55;70.18;97223.23;109753;1251;60598;-66
2022/06/11 06:20:06;;;;;;;;;;;;;;;19.59;70.31;97224.59;109661;1254;60486;-65
2022/06/11 06:22:35;;;;;;;;;;;;;;;19.70;71.29;97226.52;109584;1254;71581;-66
2022/06/11 06:25:04;;;;;;;;;;;;;;;19.79;70.26;97229.72;109799;1253;68604;-68
2022/06/11 06:27:33;;;;;;;;;;;;;;;19.80;70.28;97228.91;109310;1251;682599;-67
2022/06/11 06:30:03;;;;;;;;;;;;;;;19.80;70.13;97228.82;109867;1251;60544;-68
2022/06/11 06:32:32;;;;;;;;;;;;;;;19.76;70.09;97231.45;109782;1251;60421;-72
2022/06/11 06:35:01;;;;;;;;;;;;;;;19.73;70.49;97233.19;109756;1251;71797;-71
2022/06/11 06:37:32;;;;;;;;;;;;;;;19.97;70.01;97237.70;109777;1251;68534;-71
2022/06/11 06:40:03;;;;;;;;;;;;;;;20.30;69.20;97235.25;109782;1251;69470;-73
2022/06/11 06:42:32;;;;;;;;;;;;;;;20.53;69.13;97238.59;109854;1251;60522;-75
2022/06/11 06:45:01;;;;;;;;;;;;;;;20.79;68.30;97242.94;109752;1251;60574;-70
2022/06/11 06:47:30;;;;;;;;;;;;;;;21.22;66.19;97240.34;109842;1250;71603;-71
2022/06/11 06:49:58;;;;;;;;;;;;;;;21.64;66.33;97242.47;110240;1251;68024;-74
2022/06/11 06:52:27;;;;;;;;;;;;;;;22.06;64.85;97238.20;110028;1250;68432;-73
2022/06/11 06:54:56;;;;;;;;;;;;;;;22.60;63.49;97237.77;109923;1251;61020;-66
2022/06/11 06:57:25;;;;;;;;;;;;;;;23.13;59.36;97237.06;109952;1251;60540;-67
2022/06/11 06:59:54;;;;;;;;;;;;;;;23.57;57.66;97242.13;109916;1251;72356;-69
2022/06/11 07:02:23;;;;;;;;;;;;;;;24.11;57.54;97236.27;109924;1251;67820;-72
2022/06/11 07:04:51;;;;;;;;;;;;;;;24.35;55.87;97241.85;109938;1251;68743;-67
2022/06/11 07:07:20;;;;;;;;;;;;;;;24.64;55.47;97245.26;109758;1251;60465;-67
2022/06/11 07:09:54;;;;;;;;;;;;;;;24.95;54.60;97245.05;109640;1251;60534;-73
2022/06/11 07:12:23;;;;;;;;;;;;;;;25.25;54.44;97247.17;109869;1251;72418;-71
2022/06/11 07:14:52;;;;;;;;;;;;;;;25.44;53.24;97246.20;109854;1251;68573;-66
2022/06/11 07:17:21;;;;;;;;;;;;;;;25.33;52.92;97241.83;109729;1251;70069;-67
2022/06/11 07:19:52;;;;;;;;;;;;;;;25.43;53.24;97241.17;109768;1251;60508;-67
2022/06/11 07:22:23;;;;;;;;;;;;;;;25.09;52.73;97237.60;109781;1251;60575;-68
2022/06/11 07:24:52;;;;;;;;;;;;;;;24.89;53.59;97238.02;109828;1251;72369;-67
2022/06/11 07:27:24;;;;;;;;;;;;;;;24.40;53.06;97239.52;109885;1251;68638;-71
2022/06/11 07:30:13;;;;;;;;;;;;;;;24.01;53.58;97241.84;109834;1251;69592;-67
2022/06/11 07:32:45;;;;;;;;;;;;;;;23.96;53.09;97241.73;109860;1250;60544;-71
2022/06/11 07:35:14;;;;;;;;;;;;;;;24.44;52.90;97242.52;109850;1251;60848;-71
2022/06/11 07:37:46;;;;;;;;;;;;;;;25.10;49.70;97242.45;110299;1251;72391;-72
2022/06/11 07:40:16;;;;;;;;;;;;;;;25.61;46.27;97244.34;109900;1251;68625;-71
2022/06/11 07:42:45;;;;;;;;;;;;;;;26.06;45.10;97240.04;109869;1250;69404;-69
2022/06/11 07:45:13;;;;;;;;;;;;;;;26.51;45.94;97242.41;109910;1251;60583;-68
2022/06/11 07:47:54;;;;;;;;;;;;;;;27.14;46.98;97246.02;109877;1251;60549;-67
2022/06/11 07:50:29;;;;;;;;;;;;;;;27.75;43.52;97241.40;109884;1250;72377;-67
2022/06/11 07:52:59;;;;;;;;;;;;;;;27.83;42.70;97241.35;109848;1251;67950;-66
2022/06/11 07:55:28;;;;;;;;;;;;;;;28.11;41.37;97243.43;109829;1251;69362;-69
2022/06/11 07:57:57;;;;;;;;;;;;;;;28.07;39.07;97240.69;109733;1251;60520;-71
2022/06/11 08:00:30;;;;;;;;;;;;;;;27.60;40.94;97241.88;109906;1251;60540;-67
2022/06/11 08:02:59;;;;;;;;;;;;;;;27.09;42.67;97240.53;109904;1250;72345;-67
2022/06/11 08:05:28;;;;;;;;;;;;;;;27.72;43.71;97242.08;109884;1251;69373;-72
2022/06/11 08:07:58;;;;;;;;;;;;;;;28.21;41.33;97237.08;109874;1249;68650;-69
2022/06/11 08:10:27;;;;;;;;;;;;;;;28.71;41.04;97235.78;109933;1251;60580;-70
2022/06/11 08:12:56;;;;;;;;;;;;;;;28.94;39.79;97238.07;109893;1251;60646;-66
2022/06/11 08:15:26;;;;;;;;;;;;;;;29.14;38.20;97238.48;109692;1253;72408;-68
2022/06/11 08:17:55;;;;;;;;;;;;;;;29.46;38.05;97235.39;109872;1251;67864;-70
2022/06/11 08:20:26;;;;;;;;;;;;;;;29.42;38.15;97234.13;109793;1250;67892;-67
2022/06/11 08:22:55;;;;;;;;;;;;;;;29.69;37.65;97234.85;109909;1251;60609;-67
2022/06/11 08:25:24;;;;;;;;;;;;;;;29.77;37.74;97231.48;110291;1251;59615;-68
2022/06/11 08:27:53;;;;;;;;;;;;;;;29.52;36.32;97229.35;109849;1251;72560;-66
2022/06/11 08:30:22;;;;;;;;;;;;;;;29.63;36.61;97227.38;109797;1251;68854;-67
2022/06/11 08:32:51;;;;;;;;;;;;;;;29.64;36.38;97224.45;109770;1251;69560;-68
2022/06/11 08:35:22;;;;;;;;;;;;;;;29.68;36.51;97225.71;109991;1251;60510;-69
2022/06/11 08:37:51;;;;;;;;;;;;;;;29.31;35.37;97223.10;109910;1251;60504;-68
2022/06/11 08:40:38;;;;;;;;;;;;;;;29.41;37.10;97219.14;109957;1250;71890;-70
2022/06/11 08:43:09;;;;;;;;;;;;;;;29.80;36.26;97217.05;109837;1251;68747;-66
2022/06/11 08:45:42;;;;;;;;;;;;;;;29.86;36.61;97221.48;109859;1251;69467;-68
2022/06/11 08:48:20;;;;;;;;;;;;;;;29.90;37.18;97222.27;109729;1253;60557;-71
2022/06/11 08:51:05;;;;;;;;;;;;;;;29.96;36.54;97215.54;109879;1250;60560;-71
2022/06/11 08:53:36;;;;;;;;;;;;;;;29.97;35.96;97216.37;109757;1251;72413;-67
2022/06/11 08:56:08;;;;;;;;;;;;;;;30.22;36.00;97206.35;109710;1251;68649;-71
2022/06/11 08:58:47;;;;;;;;;;;;;;;30.48;34.16;97207.16;109771;1251;68707;-70
2022/06/11 09:01:42;;;;;;;;;;;;;;;30.42;34.96;97202.36;109875;1251;60495;-67
2022/06/11 09:04:28;;;;;;;;;;;;;;;29.36;35.19;97200.84;109741;1252;60463;-71
2022/06/11 09:07:04;;;;;;;;;;;;;;;29.01;36.31;97205.52;109901;1251;72387;-69
2022/06/11 09:09:39;;;;;;;;;;;;;;;28.84;35.88;97196.88;110249;1251;68045;-71
2022/06/11 09:12:14;;;;;;;;;;;;;;;28.49;37.91;97201.09;110147;1251;69024;-73
2022/06/11 09:15:01;;;;;;;;;;;;;;;28.81;38.86;97199.30;109711;1251;60439;-72
2022/06/11 09:17:36;;;;;;;;;;;;;;;29.32;38.43;97199.13;109924;1250;60482;-72
2022/06/11 09:20:12;;;;;;;;;;;;;;;29.57;38.30;97195.73;109906;1251;72422;-68
2022/06/11 09:22:59;;;;;;;;;;;;;;;29.91;37.41;97191.58;109764;1251;68756;-68
2022/06/11 09:25:28;;;;;;;;;;;;;;;30.30;36.82;97195.84;109883;1251;68485;-73
2022/06/11 09:28:10;;;;;;;;;;;;;;;30.52;35.89;97195.71;109864;1251;60543;-68
2022/06/11 09:30:42;;;;;;;;;;;;;;;30.49;36.22;97194.05;109644;1253;60869;-71
2022/06/11 09:33:13;;;;;;;;;;;;;;;30.15;36.42;97192.69;109708;1251;72367;-67
2022/06/11 09:35:53;;;;;;;;;;;;;;;29.90;36.31;97189.77;109889;1248;68586;-69
2022/06/11 09:38:34;;;;;;;;;;;;;;;29.32;36.75;97191.59;109738;1253;69530;-68
2022/06/11 09:41:24;;;;;;;;;;;;;;;28.40;39.42;97187.48;109722;1251;60537;-68
2022/06/11 09:44:05;;;;;;;;;;;;;;;27.84;40.77;97187.50;109709;1253;60500;-70
2022/06/11 09:46:41;;;;;;;;;;;;;;;27.33;41.71;97187.48;109732;1253;72599;-67
2022/06/11 09:49:29;;;;;;;;;;;;;;;27.25;41.91;97183.60;109694;1254;67099;-66
2022/06/11 09:52:00;;;;;;;;;;;;;;;27.03;42.15;97184.66;109698;1252;68693;-68
2022/06/11 09:54:35;;;;;;;;;;;;;;;26.85;41.95;97187.51;109817;1252;60439;-69
2022/06/11 09:57:22;;;;;;;;;;;;;;;26.83;42.16;97188.27;110117;1253;60589;-72
2022/06/11 09:59:54;;;;;;;;;;;;;;;26.72;42.72;97191.63;109691;1250;70806;-68
2022/06/11 10:03:18;;;;;;;;;;;;;;;26.25;43.80;97190.13;109737;1253;67674;-70
2022/06/11 10:05:30;;;;;;;;;;;;;;;25.97;44.53;97190.80;109613;1253;69786;-69
2022/06/11 10:08:05;;;;;;;;;;;;;;;25.86;44.31;97192.63;109623;1253;60586;-70
2022/06/11 10:10:37;;;;;;;;;;;;;;;25.42;46.07;97199.43;109634;1253;60533;-67
2022/06/11 10:13:08;;;;;;;;;;;;;;;25.04;47.94;97197.86;109696;1252;71908;-67
2022/06/11 10:15:39;;;;;;;;;;;;;;;24.85;48.57;97196.92;109732;1253;67947;-67
2022/06/11 10:18:11;;;;;;;;;;;;;;;24.44;50.88;97196.86;109683;1253;68711;-68
2022/06/11 10:20:43;;;;;;;;;;;;;;;24.14;53.39;97199.27;109705;1253;60498;-68
2022/06/11 10:23:12;;;;;;;;;;;;;;;24.06;53.86;97202.02;109686;1252;60576;-69
2022/06/11 10:25:56;;;;;;;;;;;;;;;23.93;54.18;97200.91;109594;1253;71575;-72
2022/06/11 10:28:25;;;;;;;;;;;;;;;23.45;57.24;97205.33;109680;1253;69101;-67
2022/06/11 10:31:04;;;;;;;;;;;;;;;23.18;59.93;97212.30;109646;1253;69396;-67
2022/06/11 10:33:37;;;;;;;;;;;;;;;22.86;63.51;97210.70;109713;1252;60501;-65
2022/06/11 10:36:22;;;;;;;;;;;;;;;22.73;64.93;97200.66;109735;1253;60533;-69
2022/06/11 10:39:12;;;;;;;;;;;;;;;22.54;66.26;97197.48;109524;1253;70606;-72
2022/06/11 10:41:44;;;;;;;;;;;;;;;22.47;66.72;97192.66;110262;1250;68703;-71
2022/06/11 10:44:22;;;;;;;;;;;;;;;22.37;66.66;97193.92;109897;1249;68739;-71
2022/06/11 10:46:52;;;;;;;;;;;;;;;22.24;65.38;97197.83;109904;1250;60569;-70
2022/06/11 10:49:24;;;;;;;;;;;;;;;22.22;65.38;97197.76;109873;1251;60819;-71
2022/06/11 10:51:56;;;;;;;;;;;;;;;22.29;64.33;97207.04;109874;1251;71510;-69
2022/06/11 10:54:26;;;;;;;;;;;;;;;22.73;66.05;97206.89;109698;1251;68614;-71
2022/06/11 10:57:04;;;;;;;;;;;;;;;23.41;64.05;97197.02;109654;1251;69452;-70
2022/06/11 10:59:32;;;;;;;;;;;;;;;24.13;61.34;97184.73;109845;1250;60512;-71
2022/06/11 11:02:24;;;;;;;;;;;;;;;24.87;58.05;97184.02;109941;1250;60453;-71
2022/06/11 11:05:03;;;;;;;;;;;;;;;25.30;55.76;97180.91;109818;1250;71405;-69
2022/06/11 11:07:59;;;;;;;;;;;;;;;25.29;54.60;97180.67;109958;1250;68599;-72
2022/06/11 11:10:36;;;;;;;;;;;;;;;25.17;54.68;97178.40;109729;1251;69306;-71
2022/06/11 11:13:13;;;;;;;;;;;;;;;24.97;54.72;97175.52;109941;1250;60495;-67
2022/06/11 11:15:45;;;;;;;;;;;;;;;24.87;55.48;97171.79;109934;1250;60510;-70
2022/06/11 11:18:18;;;;;;;;;;;;;;;24.58;56.68;97164.75;109902;1251;72577;-71
2022/06/11 11:20:48;;;;;;;;;;;;;;;24.32;57.28;97163.36;109846;1251;67785;-67
2022/06/11 11:23:23;;;;;;;;;;;;;;;24.22;56.77;97161.67;109932;1250;69456;-72
2022/06/11 11:25:57;;;;;;;;;;;;;;;24.19;57.51;97158.08;109947;1250;60495;-70
2022/06/11 11:28:38;;;;;;;;;;;;;;;24.09;57.64;97153.91;110166;1250;60593;-70
2022/06/11 11:31:15;;;;;;;;;;;;;;;23.97;57.96;97155.22;109903;1250;72633;-71
2022/06/11 11:33:56;;;;;;;;;;;;;;;23.96;57.40;97152.13;109677;1251;67971;-70
2022/06/11 11:36:26;;;;;;;;;;;;;;;23.90;57.07;97161.40;109919;1250;68679;-70
2022/06/11 11:39:13;;;;;;;;;;;;;;;23.74;58.51;97165.98;109737;1251;60616;-70
2022/06/11 11:42:01;;;;;;;;;;;;;;;23.88;58.32;97169.00;109927;1250;60522;-68
2022/06/11 11:44:34;;;;;;;;;;;;;;;24.06;58.88;97166.54;109951;1250;72385;-71
2022/06/11 11:47:06;;;;;;;;;;;;;;;24.24;58.06;97168.86;109878;1250;67235;-69
2022/06/11 11:49:35;;;;;;;;;;;;;;;24.37;57.12;97172.14;109932;1250;68728;-68
2022/06/11 11:52:06;;;;;;;;;;;;;;;24.39;55.93;97168.98;109850;1250;60582;-69
2022/06/11 11:54:35;;;;;;;;;;;;;;;24.58;56.11;97166.52;109966;1250;60484;-71
2022/06/11 11:57:05;;;;;;;;;;;;;;;25.09;55.08;97161.90;109787;1251;72424;-68
2022/06/11 11:59:52;;;;;;;;;;;;;;;25.59;54.06;97152.98;109932;1250;67974;-68
2022/06/11 12:02:23;;;;;;;;;;;;;;;26.16;52.81;97154.38;109679;1251;69561;-68
2022/06/11 12:05:00;;;;;;;;;;;;;;;26.53;51.31;97155.48;109857;1250;60507;-67
2022/06/11 12:07:34;;;;;;;;;;;;;;;26.74;50.59;97150.16;109798;1250;60436;-70
2022/06/11 12:10:22;;;;;;;;;;;;;;;26.85;49.09;97141.06;109821;1250;71580;-71
2022/06/11 12:12:53;;;;;;;;;;;;;;;26.89;48.32;97145.58;110013;1250;67877;-68
2022/06/11 12:15:32;;;;;;;;;;;;;;;27.14;48.07;97146.81;110151;1250;69332;-72
2022/06/11 12:18:03;;;;;;;;;;;;;;;27.35;47.96;97141.88;109932;1250;60493;-66
2022/06/11 12:20:44;;;;;;;;;;;;;;;27.35;46.87;97143.06;109851;1250;60502;-71
2022/06/11 12:23:21;;;;;;;;;;;;;;;27.42;47.35;97132.14;109940;1250;72434;-73
2022/06/11 12:25:56;;;;;;;;;;;;;;;27.45;46.91;97137.58;109904;1250;68262;-68
2022/06/11 12:28:28;;;;;;;;;;;;;;;27.67;46.65;97136.81;109947;1250;68794;-68
2022/06/11 12:30:58;;;;;;;;;;;;;;;27.93;46.15;97127.54;109956;1250;60472;-71
2022/06/11 12:33:28;;;;;;;;;;;;;;;28.41;44.33;97130.31;109721;1250;60552;-66
2022/06/11 12:36:17;;;;;;;;;;;;;;;28.86;43.24;97125.59;109938;1249;73125;-70
2022/06/11 12:38:55;;;;;;;;;;;;;;;29.23;42.38;97125.45;109827;1250;67843;-68
2022/06/11 12:41:24;;;;;;;;;;;;;;;29.13;41.07;97121.21;109984;1250;68651;-70
2022/06/11 12:44:02;;;;;;;;;;;;;;;29.04;41.94;97115.73;109989;1250;60529;-71
2022/06/11 12:46:49;;;;;;;;;;;;;;;28.59;41.95;97114.52;109992;1250;60484;-67
2022/06/11 12:49:29;;;;;;;;;;;;;;;28.92;42.43;97110.67;109891;1250;71595;-72
2022/06/11 12:52:13;;;;;;;;;;;;;;;29.29;41.56;97102.69;109952;1250;68942;-72
2022/06/11 12:54:59;;;;;;;;;;;;;;;29.37;39.30;97093.87;109920;1250;69612;-69
2022/06/11 12:57:37;;;;;;;;;;;;;;;29.55;40.30;97089.06;109751;1251;60548;-71
2022/06/11 13:00:35;;;;;;;;;;;;;;;29.79;39.91;97078.91;110223;1250;60504;-69
2022/06/11 13:03:28;;;;;;;;;;;;;;;29.71;38.59;97071.55;109917;1250;73017;-67
2022/06/11 13:05:56;;;;;;;;;;;;;;;29.85;39.92;97074.27;109925;1250;68406;-72
2022/06/11 13:08:38;;;;;;;;;;;;;;;29.98;40.18;97078.11;109917;1250;69469;-72